createdAt,value
2017-01-26T00:01:50.786Z,-0.72
2017-01-26T00:04:03.185Z,-0.73
2017-01-26T00:06:15.532Z,-0.74
2017-01-26T00:08:27.778Z,-0.74
2017-01-26T00:10:40.096Z,-0.76
2017-01-26T00:12:47.517Z,-0.76
2017-01-26T00:14:59.851Z,-0.73
2017-01-26T00:17:12.533Z,-0.74
2017-01-26T00:19:24.732Z,-0.74
2017-01-26T00:21:37.384Z,-0.74
2017-01-26T00:23:50.419Z,-0.71
2017-01-26T00:26:02.632Z,-0.69
2017-01-26T00:28:14.957Z,-0.65
2017-01-26T00:30:27.346Z,-0.63
2017-01-26T00:32:39.603Z,-0.62
2017-01-26T00:34:51.880Z,-0.62
2017-01-26T00:37:04.248Z,-0.62
2017-01-26T00:39:16.655Z,-0.61
2017-01-26T00:41:28.925Z,-0.61
2017-01-26T00:43:41.208Z,-0.63
2017-01-26T00:45:53.672Z,-0.64
2017-01-26T00:48:06.005Z,-0.65
2017-01-26T00:50:18.195Z,-0.65
2017-01-26T00:52:30.636Z,-0.63
2017-01-26T00:54:43.063Z,-0.63
2017-01-26T00:56:55.779Z,-0.63
2017-01-26T00:59:08.381Z,-0.64
2017-01-26T01:01:15.652Z,-0.64
2017-01-26T01:03:27.878Z,-0.65
2017-01-26T01:05:40.239Z,-0.65
2017-01-26T01:07:52.613Z,-0.67
2017-01-26T01:10:04.812Z,-0.67
2017-01-26T01:12:17.067Z,-0.67
2017-01-26T01:14:29.239Z,-0.67
2017-01-26T01:16:41.655Z,-0.65
2017-01-26T01:18:53.915Z,-0.65
2017-01-26T01:21:06.081Z,-0.66
2017-01-26T01:23:18.506Z,-0.68
2017-01-26T01:25:30.688Z,-0.68
2017-01-26T01:27:42.920Z,-0.66
2017-01-26T01:29:55.258Z,-0.63
2017-01-26T01:32:03.307Z,-0.63
2017-01-26T01:34:15.836Z,-0.64
2017-01-26T01:36:28.095Z,-0.66
2017-01-26T01:38:40.493Z,-0.67
2017-01-26T01:40:48.055Z,-0.64
2017-01-26T01:42:55.341Z,-0.62
2017-01-26T01:45:07.699Z,-0.59
2017-01-26T01:47:19.942Z,-0.58
2017-01-26T01:49:27.191Z,-0.57
2017-01-26T01:51:39.513Z,-0.55
2017-01-26T01:53:52.714Z,-0.56
2017-01-26T01:56:05.024Z,-0.57
2017-01-26T01:58:17.249Z,-0.57
2017-01-26T02:00:29.644Z,-0.58
2017-01-26T02:02:42.178Z,-0.59
2017-01-26T02:04:54.830Z,-0.59
2017-01-26T02:07:02.706Z,-0.6
2017-01-26T02:09:14.984Z,-0.62
2017-01-26T02:11:27.134Z,-0.61
2017-01-26T02:13:39.496Z,-0.59
2017-01-26T02:15:51.823Z,-0.59
2017-01-26T02:18:04.153Z,-0.61
2017-01-26T02:20:16.334Z,-0.62
2017-01-26T02:22:23.663Z,-0.62
2017-01-26T02:24:31.144Z,-0.62
2017-01-26T02:26:43.302Z,-0.62
2017-01-26T02:28:55.574Z,-0.62
2017-01-26T02:31:07.979Z,-0.63
2017-01-26T02:33:20.266Z,-0.62
2017-01-26T02:35:32.667Z,-0.6
2017-01-26T02:37:45.261Z,-0.61
2017-01-26T02:39:53.083Z,-0.61
2017-01-26T02:42:05.826Z,-0.61
2017-01-26T02:44:18.202Z,-0.62
2017-01-26T02:46:30.473Z,-0.65
2017-01-26T02:48:37.873Z,-0.66
2017-01-26T02:50:50.107Z,-0.65
2017-01-26T02:53:02.331Z,-0.65
2017-01-26T02:55:14.736Z,-0.69
2017-01-26T02:57:27.081Z,-0.71
2017-01-26T02:59:34.819Z,-0.73
2017-01-26T03:01:47.086Z,-0.76
2017-01-26T03:03:59.406Z,-0.79
2017-01-26T03:06:11.710Z,-0.81
2017-01-26T03:08:25.068Z,-0.81
2017-01-26T03:10:37.246Z,-0.81
2017-01-26T03:12:49.523Z,-0.82
2017-01-26T03:14:56.880Z,-0.84
2017-01-26T03:17:09.588Z,-0.84
2017-01-26T03:19:17.051Z,-0.84
2017-01-26T03:21:29.393Z,-0.82
2017-01-26T03:23:41.787Z,-0.81
2017-01-26T03:25:58.027Z,-0.81
2017-01-26T03:28:10.166Z,-0.83
2017-01-26T03:30:22.561Z,-0.85
2017-01-26T03:32:37.536Z,-0.85
2017-01-26T03:34:52.392Z,-0.86
2017-01-26T03:37:04.816Z,-0.86
2017-01-26T03:39:17.031Z,-0.85
2017-01-26T03:41:29.304Z,-0.83
2017-01-26T03:43:41.473Z,-0.82
2017-01-26T03:45:53.629Z,-0.81
2017-01-26T03:47:56.229Z,-0.81
2017-01-26T03:50:08.682Z,-0.83
2017-01-26T03:52:21.865Z,-0.83
2017-01-26T03:54:29.270Z,-0.82
2017-01-26T03:56:41.665Z,-0.82
2017-01-26T03:58:53.834Z,-0.81
2017-01-26T04:01:06.015Z,-0.81
2017-01-26T04:03:14.268Z,-0.81
2017-01-26T04:05:21.618Z,-0.8
2017-01-26T04:07:34.202Z,-0.78
2017-01-26T04:09:41.595Z,-0.8
2017-01-26T04:11:53.785Z,-0.82
2017-01-26T04:14:06.216Z,-0.84
2017-01-26T04:16:18.448Z,-0.84
2017-01-26T04:18:31.749Z,-0.84
2017-01-26T04:20:39.621Z,-0.85
2017-01-26T04:22:51.825Z,-0.86
2017-01-26T04:25:04.455Z,-0.87
2017-01-26T04:27:17.274Z,-0.86
2017-01-26T04:29:29.840Z,-0.87
2017-01-26T04:31:42.214Z,-0.86
2017-01-26T04:33:54.564Z,-0.86
2017-01-26T04:36:01.919Z,-0.85
2017-01-26T04:38:14.444Z,-0.86
2017-01-26T04:40:26.887Z,-0.87
2017-01-26T04:42:39.143Z,-0.85
2017-01-26T04:44:51.450Z,-0.84
2017-01-26T04:47:03.770Z,-0.83
2017-01-26T04:49:17.066Z,-0.84
2017-01-26T04:51:24.363Z,-0.85
2017-01-26T04:53:36.767Z,-0.85
2017-01-26T04:55:48.958Z,-0.85
2017-01-26T04:58:01.284Z,-0.86
2017-01-26T05:00:08.778Z,-0.87
2017-01-26T05:02:21.531Z,-0.87
2017-01-26T05:04:34.167Z,-0.86
2017-01-26T05:06:46.537Z,-0.87
2017-01-26T05:08:53.861Z,-0.88
2017-01-26T05:11:06.170Z,-0.88
2017-01-26T05:13:18.547Z,-0.89
2017-01-26T05:15:30.935Z,-0.89
2017-01-26T05:17:43.215Z,-0.9
2017-01-26T05:19:55.524Z,-0.9
2017-01-26T05:22:07.714Z,-0.9
2017-01-26T05:24:20.034Z,-0.89
2017-01-26T05:26:27.361Z,-0.89
2017-01-26T05:28:39.735Z,-0.9
2017-01-26T05:30:51.948Z,-0.89
2017-01-26T05:32:54.470Z,-0.9
2017-01-26T05:35:01.903Z,-0.9
2017-01-26T05:37:14.918Z,-0.89
2017-01-26T05:39:27.651Z,-0.87
2017-01-26T05:41:40.216Z,-0.86
2017-01-26T05:43:52.640Z,-0.84
2017-01-26T05:46:05.087Z,-0.83
2017-01-26T05:48:17.445Z,-0.81
2017-01-26T05:50:29.746Z,-0.81
2017-01-26T05:52:42.015Z,-0.82
2017-01-26T05:54:54.335Z,-0.84
2017-01-26T05:57:06.564Z,-0.87
2017-01-26T05:59:18.933Z,-0.88
2017-01-26T06:01:31.135Z,-0.9
2017-01-26T06:03:33.608Z,-0.91
2017-01-26T06:05:46.224Z,-0.91
2017-01-26T06:07:53.686Z,-0.92
2017-01-26T06:10:07.024Z,-0.91
2017-01-26T06:12:19.902Z,-0.9
2017-01-26T06:14:28.174Z,-0.89
2017-01-26T06:16:40.357Z,-0.89
2017-01-26T06:18:52.652Z,-0.89
2017-01-26T06:20:59.996Z,-0.88
2017-01-26T06:23:12.266Z,-0.87
2017-01-26T06:25:24.642Z,-0.86
2017-01-26T06:27:36.914Z,-0.85
2017-01-26T06:29:50.100Z,-0.86
2017-01-26T06:32:02.598Z,-0.86
2017-01-26T06:34:14.860Z,-0.87
2017-01-26T06:36:22.368Z,-0.89
2017-01-26T06:38:29.739Z,-0.9
2017-01-26T06:40:49.491Z,-0.88
2017-01-26T06:43:01.936Z,-0.87
2017-01-26T06:45:14.411Z,-0.87
2017-01-26T06:47:27.058Z,-0.87
2017-01-26T06:49:39.824Z,-0.85
2017-01-26T06:51:47.282Z,-0.83
2017-01-26T06:53:59.595Z,-0.83
2017-01-26T06:56:11.820Z,-0.84
2017-01-26T06:58:19.599Z,-0.85
2017-01-26T07:00:31.790Z,-0.84
2017-01-26T07:02:44.139Z,-0.83
2017-01-26T07:04:56.466Z,-0.79
2017-01-26T07:07:08.925Z,-0.73
2017-01-26T07:09:21.275Z,-0.7
2017-01-26T07:11:34.609Z,-0.67
2017-01-26T07:13:46.984Z,-0.63
2017-01-26T07:15:59.318Z,-0.59
2017-01-26T07:18:06.745Z,-0.54
2017-01-26T07:20:14.682Z,-0.51
2017-01-26T07:22:22.580Z,-0.5
2017-01-26T07:24:35.025Z,-0.49
2017-01-26T07:26:47.427Z,-0.46
2017-01-26T07:28:59.808Z,-0.41
2017-01-26T07:31:12.079Z,-0.32
2017-01-26T07:33:24.311Z,-0.26
2017-01-26T07:35:37.128Z,-0.21
2017-01-26T07:37:49.411Z,-0.16
2017-01-26T07:40:01.783Z,-0.07
2017-01-26T07:42:14.162Z,-0.01
2017-01-26T07:44:26.635Z,0.08
2017-01-26T07:46:39.086Z,0.11
2017-01-26T07:48:51.368Z,0.15
2017-01-26T07:51:03.887Z,0.21
2017-01-26T07:53:11.204Z,0.28
2017-01-26T07:55:23.528Z,0.32
2017-01-26T07:57:36.801Z,0.37
2017-01-26T07:59:49.270Z,0.42
2017-01-26T08:01:56.669Z,0.46
2017-01-26T08:04:04.078Z,0.54
2017-01-26T08:06:16.517Z,0.61
2017-01-26T08:08:29.040Z,0.69
2017-01-26T08:10:41.251Z,0.75
2017-01-26T08:12:48.621Z,0.82
2017-01-26T08:15:00.992Z,0.85
2017-01-26T08:17:09.655Z,0.87
2017-01-26T08:19:22.068Z,0.91
2017-01-26T08:21:43.282Z,0.96
2017-01-26T08:23:58.363Z,1.02
2017-01-26T08:26:10.627Z,1.08
2017-01-26T08:28:22.898Z,1.17
2017-01-26T08:30:25.587Z,1.24
2017-01-26T08:32:38.526Z,1.31
2017-01-26T08:34:50.814Z,1.39
2017-01-26T08:37:03.311Z,1.46
2017-01-26T08:39:10.606Z,1.54
2017-01-26T08:41:12.957Z,1.64
2017-01-26T08:43:25.250Z,1.71
2017-01-26T08:45:37.397Z,1.76
2017-01-26T08:47:49.881Z,1.81
2017-01-26T08:50:02.075Z,1.85
2017-01-26T08:52:14.285Z,1.89
2017-01-26T08:54:26.737Z,1.92
2017-01-26T08:56:34.117Z,1.99
2017-01-26T08:58:41.619Z,2.07
2017-01-26T09:00:53.966Z,2.11
2017-01-26T09:03:06.426Z,2.14
2017-01-26T09:05:18.694Z,2.2
2017-01-26T09:07:31.275Z,2.24
2017-01-26T09:09:45.416Z,2.32
2017-01-26T09:11:57.806Z,2.37
2017-01-26T09:14:10.247Z,2.45
2017-01-26T09:16:22.557Z,2.54
2017-01-26T09:18:34.865Z,2.64
2017-01-26T09:20:47.288Z,2.73
2017-01-26T09:22:59.724Z,2.84
2017-01-26T09:25:12.032Z,2.94
2017-01-26T09:27:24.424Z,3.09
2017-01-26T09:29:31.978Z,3.24
2017-01-26T09:31:44.303Z,3.36
2017-01-26T09:33:56.746Z,3.38
2017-01-26T09:36:09.112Z,3.51
2017-01-26T09:38:21.482Z,3.7
2017-01-26T09:40:33.899Z,3.85
2017-01-26T09:42:46.238Z,3.97
2017-01-26T09:44:58.805Z,4.02
2017-01-26T09:47:06.232Z,4.06
2017-01-26T09:49:13.485Z,4.05
2017-01-26T09:51:25.855Z,4.1
2017-01-26T09:53:38.235Z,4.21
2017-01-26T09:55:50.607Z,4.27
2017-01-26T09:58:03.352Z,4.39
2017-01-26T10:00:15.654Z,4.5
2017-01-26T10:02:27.936Z,4.61
2017-01-26T10:04:36.237Z,4.65
2017-01-26T10:06:43.416Z,4.72
2017-01-26T10:08:55.748Z,4.7
2017-01-26T10:11:08.149Z,4.68
2017-01-26T10:13:15.463Z,4.67
2017-01-26T10:15:28.027Z,4.72
2017-01-26T10:17:40.643Z,4.77
2017-01-26T10:19:49.197Z,4.72
2017-01-26T10:22:01.596Z,4.69
2017-01-26T10:24:04.077Z,4.71
2017-01-26T10:26:11.464Z,4.76
2017-01-26T10:28:23.740Z,4.81
2017-01-26T10:30:37.025Z,4.93
2017-01-26T10:32:44.384Z,5.07
2017-01-26T10:34:56.606Z,5.21
2017-01-26T10:37:04.027Z,5.36
2017-01-26T10:39:11.423Z,5.41
2017-01-26T10:41:23.782Z,5.4
2017-01-26T10:43:36.112Z,5.44
2017-01-26T10:45:48.500Z,5.5
2017-01-26T10:48:00.742Z,5.53
2017-01-26T10:50:13.066Z,5.51
2017-01-26T10:52:25.918Z,5.56
2017-01-26T10:54:38.377Z,5.57
2017-01-26T10:56:45.671Z,5.6
2017-01-26T10:58:57.931Z,5.66
2017-01-26T11:01:10.107Z,5.73
2017-01-26T11:03:22.334Z,5.85
2017-01-26T11:05:29.748Z,5.9
2017-01-26T11:07:37.082Z,5.91
2017-01-26T11:09:49.439Z,5.95
2017-01-26T11:12:01.676Z,6.01
2017-01-26T11:14:13.943Z,5.93
2017-01-26T11:16:26.225Z,5.88
2017-01-26T11:18:38.473Z,5.91
2017-01-26T11:20:50.826Z,5.97
2017-01-26T11:23:03.100Z,6.04
2017-01-26T11:25:15.346Z,6.16
2017-01-26T11:27:28.137Z,6.3
2017-01-26T11:29:40.981Z,6.39
2017-01-26T11:31:53.404Z,6.43
2017-01-26T11:34:05.609Z,6.53
2017-01-26T11:36:07.896Z,6.68
2017-01-26T11:38:15.152Z,6.77
2017-01-26T11:40:17.566Z,6.88
2017-01-26T11:42:30.034Z,7.05
2017-01-26T11:44:37.286Z,7.31
2017-01-26T11:46:49.744Z,7.55
2017-01-26T11:49:01.934Z,7.58
2017-01-26T11:51:14.173Z,7.59
2017-01-26T11:53:26.637Z,7.54
2017-01-26T11:55:39.042Z,7.62
2017-01-26T11:57:51.445Z,7.83
2017-01-26T12:00:03.784Z,7.84
2017-01-26T12:02:17.114Z,7.8
2017-01-26T12:04:29.590Z,7.91
2017-01-26T12:06:41.886Z,8.14
2017-01-26T12:08:54.311Z,8.56
2017-01-26T12:11:01.709Z,8.93
2017-01-26T12:13:04.127Z,9.42
2017-01-26T12:15:11.684Z,10.04
2017-01-26T12:17:19.136Z,10.32
2017-01-26T12:19:31.580Z,10.11
2017-01-26T12:21:44.991Z,10.01
2017-01-26T12:23:52.594Z,9.88
2017-01-26T12:26:05.136Z,11.2
2017-01-26T12:28:17.933Z,12.13
2017-01-26T12:30:30.527Z,14.15
2017-01-26T12:32:38.044Z,16.04
2017-01-26T12:34:50.675Z,17.07
2017-01-26T12:37:03.567Z,17.14
2017-01-26T12:39:16.098Z,17.18
2017-01-26T12:41:23.530Z,16.88
2017-01-26T12:43:35.835Z,15.69
2017-01-26T12:45:43.231Z,14.3
2017-01-26T12:47:55.486Z,13.27
2017-01-26T12:50:07.918Z,12.09
2017-01-26T12:52:15.266Z,11.45
2017-01-26T12:54:27.997Z,11.09
2017-01-26T12:56:40.512Z,9.98
2017-01-26T12:58:53.022Z,10.49
2017-01-26T13:01:00.301Z,10.61
2017-01-26T13:03:12.660Z,10.2
2017-01-26T13:05:20.151Z,10.61
2017-01-26T13:07:27.650Z,9.85
2017-01-26T13:09:40.298Z,9.56
2017-01-26T13:11:52.976Z,11.33
2017-01-26T13:14:05.497Z,11.92
2017-01-26T13:16:17.969Z,12.3
2017-01-26T13:18:30.772Z,12.39
2017-01-26T13:20:43.679Z,12.32
2017-01-26T13:22:56.186Z,12.63
2017-01-26T13:25:03.449Z,12.97
2017-01-26T13:27:15.875Z,12.74
2017-01-26T13:29:28.241Z,12.74
2017-01-26T13:31:40.919Z,12.44
2017-01-26T13:33:53.652Z,12.46
2017-01-26T13:36:03.199Z,12.51
2017-01-26T13:38:17.015Z,12.73
2017-01-26T13:40:30.015Z,12.83
2017-01-26T13:42:42.438Z,12.97
2017-01-26T13:44:54.743Z,13.12
2017-01-26T13:47:07.520Z,13.02
2017-01-26T13:49:19.972Z,12.95
2017-01-26T13:51:32.190Z,13.36
2017-01-26T13:53:44.562Z,13.74
2017-01-26T13:55:56.850Z,14.05
2017-01-26T13:58:09.097Z,14.56
2017-01-26T14:00:21.816Z,14.94
2017-01-26T14:02:34.333Z,15.01
2017-01-26T14:04:46.602Z,15.15
2017-01-26T14:06:58.925Z,15.22
2017-01-26T14:09:06.200Z,14.65
2017-01-26T14:11:03.544Z,14.19
2017-01-26T14:13:15.747Z,13.91
2017-01-26T14:15:28.105Z,13.6
2017-01-26T14:17:40.279Z,12.94
2017-01-26T14:19:47.694Z,12.91
2017-01-26T14:22:00.596Z,13
2017-01-26T14:24:13.044Z,13
2017-01-26T14:26:25.335Z,12.96
2017-01-26T14:28:37.704Z,13.06
2017-01-26T14:30:50.177Z,13.13
2017-01-26T14:32:57.578Z,12.98
2017-01-26T14:35:09.829Z,12.34
2017-01-26T14:37:17.312Z,11.64
2017-01-26T14:39:29.589Z,11.02
2017-01-26T14:41:37.040Z,10.49
2017-01-26T14:43:49.547Z,9.98
2017-01-26T14:46:01.940Z,9.52
2017-01-26T14:48:09.268Z,9.12
2017-01-26T14:50:21.568Z,8.72
2017-01-26T14:52:29.042Z,8.3
2017-01-26T14:54:36.401Z,7.87
2017-01-26T14:56:48.920Z,7.51
2017-01-26T14:59:01.607Z,7.16
2017-01-26T15:01:09.025Z,6.81
2017-01-26T15:03:21.459Z,6.47
2017-01-26T15:05:33.957Z,6.09
2017-01-26T15:07:46.265Z,5.75
2017-01-26T15:09:58.696Z,5.43
2017-01-26T15:12:06.050Z,5.16
2017-01-26T15:14:13.348Z,4.92
2017-01-26T15:16:20.695Z,4.68
2017-01-26T15:18:33.214Z,4.44
2017-01-26T15:20:45.903Z,4.19
2017-01-26T15:22:58.931Z,3.96
2017-01-26T15:25:14.607Z,3.75
2017-01-26T15:27:27.288Z,3.55
2017-01-26T15:29:44.012Z,3.34
2017-01-26T15:31:57.103Z,3.17
2017-01-26T15:34:10.086Z,2.98
2017-01-26T15:36:23.784Z,2.78
2017-01-26T15:38:40.224Z,2.6
2017-01-26T15:43:12.731Z,2.22
2017-01-26T15:45:25.071Z,2.04
2017-01-26T15:47:33.465Z,1.87
2017-01-26T15:49:41.080Z,1.7
2017-01-26T15:51:54.684Z,1.54
2017-01-26T15:54:07.201Z,1.36
2017-01-26T15:56:20.157Z,1.21
2017-01-26T15:58:32.613Z,1.05
2017-01-26T16:00:44.923Z,0.88
2017-01-26T16:02:57.863Z,0.71
2017-01-26T16:05:14.921Z,0.56
2017-01-26T16:07:38.779Z,0.4
2017-01-26T16:10:17.494Z,0.24
2017-01-26T16:12:53.548Z,0.11
2017-01-26T16:15:32.314Z,-0.04
2017-01-26T16:18:14.700Z,-0.18
2017-01-26T16:20:54.111Z,-0.32
2017-01-26T16:23:26.004Z,-0.45
2017-01-26T16:26:08.827Z,-0.58
2017-01-26T16:28:52.815Z,-0.7
2017-01-26T16:31:31.314Z,-0.83
2017-01-26T16:34:15.754Z,-0.91
2017-01-26T16:37:00.976Z,-1.02
2017-01-26T16:39:48.744Z,-1.13
2017-01-26T16:42:39.762Z,-1.22
2017-01-26T16:45:26.467Z,-1.31
2017-01-26T16:48:04.009Z,-1.39
2017-01-26T16:50:33.144Z,-1.49
2017-01-26T16:53:18.500Z,-1.6
2017-01-26T16:56:08.109Z,-1.7
2017-01-26T16:58:55.114Z,-1.82
2017-01-26T17:01:45.882Z,-1.93
2017-01-26T17:04:17.514Z,-2.05
2017-01-26T17:06:29.894Z,-2.13
2017-01-26T17:08:42.314Z,-2.19
2017-01-26T17:10:54.607Z,-2.24
2017-01-26T17:13:06.880Z,-2.28
2017-01-26T17:15:19.243Z,-2.32
2017-01-26T17:17:26.667Z,-2.38
2017-01-26T17:19:38.865Z,-2.44
2017-01-26T17:21:51.245Z,-2.5
2017-01-26T17:24:03.690Z,-2.56
2017-01-26T17:26:16.095Z,-2.63
2017-01-26T17:28:23.502Z,-2.69
2017-01-26T17:30:31.012Z,-2.75
2017-01-26T17:32:43.287Z,-2.81
2017-01-26T17:34:55.722Z,-2.88
2017-01-26T17:37:08.172Z,-2.95
2017-01-26T17:39:20.939Z,-3.02
2017-01-26T17:41:28.383Z,-3.08
2017-01-26T17:43:35.740Z,-3.16
2017-01-26T17:45:48.189Z,-3.22
2017-01-26T17:47:55.450Z,-3.28
2017-01-26T17:50:07.770Z,-3.34
2017-01-26T17:52:20.176Z,-3.41
2017-01-26T17:54:32.548Z,-3.47
2017-01-26T17:56:39.941Z,-3.53
2017-01-26T17:58:49.017Z,-3.58
2017-01-26T18:00:56.518Z,-3.63
2017-01-26T18:03:08.898Z,-3.67
2017-01-26T18:05:21.241Z,-3.72
2017-01-26T18:07:33.742Z,-3.78
2017-01-26T18:09:46.195Z,-3.84
2017-01-26T18:11:58.614Z,-3.88
2017-01-26T18:14:10.984Z,-3.92
2017-01-26T18:16:23.280Z,-3.99
2017-01-26T18:18:35.589Z,-4.02
2017-01-26T18:20:48.650Z,-4.06
2017-01-26T18:23:02.479Z,-4.07
2017-01-26T18:25:15.131Z,-4.07
2017-01-26T18:27:27.624Z,-4.06
2017-01-26T18:29:40.148Z,-4.05
2017-01-26T18:31:53.985Z,-4.05
2017-01-26T18:34:06.942Z,-4.06
2017-01-26T18:36:15.043Z,-4.09
2017-01-26T18:38:27.947Z,-4.13
2017-01-26T18:40:36.726Z,-4.2
2017-01-26T18:42:49.326Z,-4.25
2017-01-26T18:44:57.583Z,-4.32
2017-01-26T18:47:02.055Z,-4.39
2017-01-26T18:49:11.145Z,-4.46
2017-01-26T18:51:23.506Z,-4.54
2017-01-26T18:53:35.972Z,-4.61
2017-01-26T18:55:48.960Z,-4.69
2017-01-26T18:58:02.599Z,-4.74
2017-01-26T19:00:16.075Z,-4.81
2017-01-26T19:02:28.426Z,-4.89
2017-01-26T19:04:41.162Z,-4.94
2017-01-26T19:06:54.543Z,-4.98
2017-01-26T19:09:07.191Z,-5.02
2017-01-26T19:11:14.419Z,-5.05
2017-01-26T19:13:26.715Z,-5.1
2017-01-26T19:15:39.236Z,-5.18
2017-01-26T19:17:51.787Z,-5.27
2017-01-26T19:20:04.260Z,-5.33
2017-01-26T19:22:16.552Z,-5.39
2017-01-26T19:24:29.443Z,-5.45
2017-01-26T19:26:42.736Z,-5.48
2017-01-26T19:28:55.431Z,-5.53
2017-01-26T19:31:07.800Z,-5.58
2017-01-26T19:33:22.311Z,-5.59
2017-01-26T19:35:35.298Z,-5.59
2017-01-26T19:37:50.249Z,-5.6
2017-01-26T19:39:57.755Z,-5.6
2017-01-26T19:42:10.651Z,-5.61
2017-01-26T19:44:23.500Z,-5.63
2017-01-26T19:46:35.874Z,-5.69
2017-01-26T19:48:48.146Z,-5.75
2017-01-26T19:51:00.383Z,-5.8
2017-01-26T19:53:12.601Z,-5.86
2017-01-26T19:55:19.956Z,-5.91
2017-01-26T19:57:34.449Z,-5.97
2017-01-26T19:59:48.204Z,-6.01
2017-01-26T20:02:00.647Z,-6.05
2017-01-26T20:04:13.231Z,-6.07
2017-01-26T20:06:25.909Z,-6.05
2017-01-26T20:08:35.372Z,-6.07
2017-01-26T20:10:48.089Z,-6.12
2017-01-26T20:13:01.151Z,-6.16
2017-01-26T20:15:14.804Z,-6.21
2017-01-26T20:17:28.123Z,-6.26
2017-01-26T20:19:35.994Z,-6.29
2017-01-26T20:21:49.859Z,-6.32
2017-01-26T20:24:03.539Z,-6.34
2017-01-26T20:26:11.047Z,-6.37
2017-01-26T20:28:18.643Z,-6.39
2017-01-26T20:30:34.179Z,-6.41
2017-01-26T20:32:46.876Z,-6.43
2017-01-26T20:35:01.169Z,-6.46
2017-01-26T20:37:15.105Z,-6.49
2017-01-26T20:39:29.828Z,-6.53
2017-01-26T20:41:43.843Z,-6.61
2017-01-26T20:43:56.852Z,-6.69
2017-01-26T20:46:04.308Z,-6.74
2017-01-26T20:48:16.625Z,-6.78
2017-01-26T20:50:19.083Z,-6.8
2017-01-26T20:52:31.833Z,-6.83
2017-01-26T20:54:44.772Z,-6.86
2017-01-26T20:56:52.103Z,-6.87
2017-01-26T20:59:04.535Z,-6.87
2017-01-26T21:01:16.812Z,-6.88
2017-01-26T21:03:29.220Z,-6.94
2017-01-26T21:05:41.632Z,-7
2017-01-26T21:07:53.969Z,-7.06
2017-01-26T21:10:06.210Z,-7.11
2017-01-26T21:12:18.379Z,-7.15
2017-01-26T21:14:30.926Z,-7.19
2017-01-26T21:16:43.239Z,-7.23
2017-01-26T21:18:50.745Z,-7.26
2017-01-26T21:21:03.266Z,-7.27
2017-01-26T21:23:15.768Z,-7.31
2017-01-26T21:25:28.502Z,-7.37
2017-01-26T21:27:41.317Z,-7.43
2017-01-26T21:29:53.647Z,-7.5
2017-01-26T21:32:05.982Z,-7.57
2017-01-26T21:34:18.217Z,-7.63
2017-01-26T21:36:30.508Z,-7.64
2017-01-26T21:38:37.747Z,-7.65
2017-01-26T21:40:50.207Z,-7.69
2017-01-26T21:43:02.685Z,-7.71
2017-01-26T21:45:15.499Z,-7.73
2017-01-26T21:47:27.905Z,-7.74
2017-01-26T21:49:40.186Z,-7.73
2017-01-26T21:51:52.586Z,-7.74
2017-01-26T21:54:05.134Z,-7.76
2017-01-26T21:56:17.386Z,-7.73
2017-01-26T21:58:29.687Z,-7.71
2017-01-26T22:00:37.077Z,-7.71
2017-01-26T22:02:49.557Z,-7.76
2017-01-26T22:05:01.808Z,-7.83
2017-01-26T22:07:14.058Z,-7.89
2017-01-26T22:09:26.255Z,-7.93
2017-01-26T22:11:33.578Z,-7.99
2017-01-26T22:13:45.865Z,-8.05
2017-01-26T22:15:58.195Z,-8.11
2017-01-26T22:18:10.420Z,-8.14
2017-01-26T22:20:22.738Z,-8.15
2017-01-26T22:22:35.098Z,-8.17
2017-01-26T22:24:47.516Z,-8.19
2017-01-26T22:26:59.719Z,-8.22
2017-01-26T22:29:11.965Z,-8.2
2017-01-26T22:31:26.797Z,-8.16
2017-01-26T22:33:39.056Z,-8.14
2017-01-26T22:35:47.199Z,-8.16
2017-01-26T22:37:59.847Z,-8.19
2017-01-26T22:40:12.247Z,-8.26
2017-01-26T22:42:24.560Z,-8.3
2017-01-26T22:44:42.592Z,-8.31
2017-01-26T22:47:07.333Z,-8.3
2017-01-26T22:49:37.542Z,-8.32
2017-01-26T22:52:00.375Z,-8.32
2017-01-26T22:54:07.912Z,-8.33
2017-01-26T22:56:19.706Z,-8.37
2017-01-26T22:58:32.156Z,-8.36
2017-01-26T23:00:53.401Z,-8.37
2017-01-26T23:03:26.986Z,-8.35
2017-01-26T23:06:00.544Z,-8.37
2017-01-26T23:08:33.478Z,-8.44
2017-01-26T23:11:06.886Z,-8.52
2017-01-26T23:13:39.235Z,-8.59
2017-01-26T23:16:12.246Z,-8.67
2017-01-26T23:18:45.805Z,-8.72
2017-01-26T23:21:19.050Z,-8.75
2017-01-26T23:23:50.347Z,-8.74
2017-01-26T23:26:24.622Z,-8.74
2017-01-26T23:28:59.135Z,-8.7
2017-01-26T23:31:33.288Z,-8.68
2017-01-26T23:34:06.979Z,-8.72
2017-01-26T23:36:30.857Z,-8.76
2017-01-26T23:38:45.058Z,-8.79
2017-01-26T23:41:01.711Z,-8.82
2017-01-26T23:43:15.483Z,-8.85
2017-01-26T23:45:27.155Z,-8.89
2017-01-26T23:47:40.664Z,-8.9
2017-01-26T23:49:57.638Z,-8.94
2017-01-26T23:52:15.254Z,-8.97
2017-01-26T23:54:29.016Z,-9
2017-01-26T23:56:45.545Z,-9.03
2017-01-26T23:59:01.451Z,-9.04
